createdAt,value
2023-05-04T00:02:47.934Z,508.54
2023-05-04T00:08:13.899Z,507.39
2023-05-04T00:13:06.405Z,513.97
2023-05-04T00:18:06.304Z,518.71
2023-05-04T00:23:06.205Z,523.14
2023-05-04T00:28:06.117Z,517.52
2023-05-04T00:33:06.107Z,521.92
2023-05-04T00:38:06.012Z,511.63
2023-05-04T00:43:05.926Z,510.47
2023-05-04T00:48:05.887Z,507.01
2023-05-04T00:53:05.816Z,502.85
2023-05-04T00:58:05.733Z,499.13
2023-05-04T01:03:05.740Z,499.50
2023-05-04T01:08:05.593Z,497.29
2023-05-04T01:13:05.618Z,495.46
2023-05-04T01:18:05.535Z,495.83
2023-05-04T01:23:05.427Z,490.42
2023-05-04T01:28:05.364Z,490.06
2023-05-04T01:33:05.329Z,489.00
2023-05-04T01:38:05.195Z,491.85
2023-05-04T01:43:05.174Z,494.01
2023-05-04T01:48:05.084Z,493.29
2023-05-04T01:53:04.990Z,494.01
2023-05-04T01:58:04.936Z,496.92
2023-05-04T02:03:04.944Z,498.39
2023-05-04T02:08:04.812Z,502.10
2023-05-04T02:13:04.788Z,502.10
2023-05-04T02:18:04.701Z,504.73
2023-05-04T02:23:04.576Z,504.36
2023-05-04T02:28:04.557Z,505.11
2023-05-04T02:33:04.610Z,503.98
2023-05-04T02:38:04.382Z,502.85
2023-05-04T02:43:04.342Z,504.36
2023-05-04T02:48:04.295Z,503.60
2023-05-04T02:53:04.216Z,501.73
2023-05-04T02:58:04.136Z,505.49
2023-05-04T03:03:04.138Z,501.36
2023-05-04T03:08:04.000Z,503.98
2023-05-04T03:13:04.063Z,499.87
2023-05-04T03:18:03.892Z,497.66
2023-05-04T03:23:03.845Z,500.61
2023-05-04T03:28:03.788Z,502.10
2023-05-04T03:33:03.761Z,499.13
2023-05-04T03:38:03.641Z,500.98
2023-05-04T03:43:03.587Z,499.13
2023-05-04T03:48:03.495Z,497.29
2023-05-04T03:53:03.429Z,497.66
2023-05-04T03:58:03.362Z,496.92
2023-05-04T04:03:03.371Z,495.83
2023-05-04T04:08:03.239Z,493.65
2023-05-04T04:13:03.180Z,495.10
2023-05-04T04:18:17.668Z,493.29
2023-05-04T04:23:10.066Z,491.49
2023-05-04T04:28:10.006Z,490.06
2023-05-04T04:33:10.091Z,487.58
2023-05-04T04:38:09.895Z,488.29
2023-05-04T04:43:09.777Z,486.88
2023-05-04T04:48:09.795Z,485.13
2023-05-04T04:53:09.676Z,486.17
2023-05-04T04:58:09.613Z,484.08
2023-05-04T05:03:09.617Z,482.01
2023-05-04T05:08:09.472Z,481.32
2023-05-04T05:13:09.437Z,473.21
2023-05-04T05:18:09.512Z,469.91
2023-05-04T05:23:09.257Z,463.77
2023-05-04T05:28:09.193Z,460.92
2023-05-04T05:33:09.147Z,459.35
2023-05-04T05:38:09.112Z,456.24
2023-05-04T05:43:08.984Z,449.25
2023-05-04T05:48:08.982Z,446.57
2023-05-04T05:53:08.865Z,437.30
2023-05-04T05:58:08.821Z,436.46
2023-05-04T06:03:08.799Z,434.49
2023-05-04T06:08:08.683Z,435.89
2023-05-04T06:13:08.658Z,431.15
2023-05-04T06:18:08.614Z,433.65
2023-05-04T06:23:08.446Z,428.69
2023-05-04T06:28:08.421Z,382.92
2023-05-04T06:33:08.385Z,338.75
2023-05-04T06:38:08.642Z,297.45
2023-05-04T06:43:08.199Z,268.34
2023-05-04T06:48:08.206Z,247.71
2023-05-04T06:53:08.078Z,229.70
2023-05-04T06:58:08.036Z,219.52
2023-05-04T07:03:08.043Z,210.47
2023-05-04T07:08:07.938Z,206.02
2023-05-04T07:13:07.881Z,200.54
2023-05-04T07:18:07.803Z,197.56
2023-05-04T07:23:07.687Z,196.39
2023-05-04T07:28:07.649Z,198.39
2023-05-04T07:33:07.548Z,198.98
2023-05-04T07:38:07.538Z,199.70
2023-05-04T07:43:07.446Z,199.22
2023-05-04T07:48:07.408Z,197.91
2023-05-04T07:53:07.283Z,195.93
2023-05-04T07:58:07.274Z,196.97
2023-05-04T08:03:07.160Z,194.43
2023-05-04T08:08:07.297Z,192.63
2023-05-04T08:13:07.027Z,190.20
2023-05-04T08:18:07.001Z,187.94
2023-05-04T08:23:06.908Z,187.51
2023-05-04T08:28:06.823Z,185.64
2023-05-04T08:33:06.794Z,184.22
2023-05-04T08:38:06.715Z,182.43
2023-05-04T08:43:06.623Z,180.67
2023-05-04T08:48:06.578Z,179.14
2023-05-04T08:53:06.512Z,176.52
2023-05-04T08:58:06.535Z,175.23
2023-05-04T09:03:06.426Z,172.55
2023-05-04T09:08:06.382Z,169.94
2023-05-04T09:13:06.286Z,166.42
2023-05-04T09:18:06.297Z,164.96
2023-05-04T09:23:06.117Z,162.73
2023-05-04T09:28:06.082Z,162.10
2023-05-04T09:33:06.031Z,160.87
2023-05-04T09:38:05.968Z,160.26
2023-05-04T09:43:05.858Z,163.20
2023-05-04T09:48:05.871Z,164.15
2023-05-04T09:53:05.761Z,168.24
2023-05-04T09:58:05.681Z,169.94
2023-05-04T10:03:05.608Z,171.67
2023-05-04T10:08:05.560Z,173.43
2023-05-04T10:13:05.534Z,172.72
2023-05-04T10:18:05.425Z,174.87
2023-05-04T10:23:05.350Z,174.15
2023-05-04T10:28:05.291Z,179.33
2023-05-04T10:33:05.248Z,186.46
2023-05-04T10:38:05.173Z,189.55
2023-05-04T10:43:05.084Z,191.41
2023-05-04T10:48:05.178Z,191.41
2023-05-04T10:53:05.249Z,190.42
2023-05-04T10:58:04.890Z,188.47
2023-05-04T11:03:04.909Z,187.94
2023-05-04T11:08:04.755Z,186.77
2023-05-04T11:13:05.917Z,190.31
2023-05-04T11:18:04.687Z,190.85
2023-05-04T11:23:04.548Z,192.18
2023-05-04T11:28:04.513Z,190.96
2023-05-04T11:33:04.484Z,193.08
2023-05-04T11:38:04.373Z,194.32
2023-05-04T11:43:04.333Z,196.86
2023-05-04T11:48:04.294Z,198.39
2023-05-04T11:53:04.182Z,201.76
2023-05-04T11:58:04.098Z,202.13
2023-05-04T12:03:04.063Z,210.07
2023-05-04T12:08:04.021Z,212.62
2023-05-04T12:13:03.974Z,217.50
2023-05-04T12:18:03.905Z,220.39
2023-05-04T12:23:03.820Z,228.91
2023-05-04T12:28:03.768Z,233.09
2023-05-04T12:33:03.706Z,236.41
2023-05-04T12:38:03.594Z,238.45
2023-05-04T12:43:03.598Z,235.91
2023-05-04T12:48:03.579Z,236.41
2023-05-04T12:53:03.392Z,238.11
2023-05-04T12:58:03.332Z,242.10
2023-05-04T13:03:03.313Z,243.70
2023-05-04T13:08:03.207Z,245.87
2023-05-04T13:13:03.179Z,247.89
2023-05-04T13:18:03.211Z,249.57
2023-05-04T13:23:03.012Z,252.80
2023-05-04T13:28:02.947Z,256.32
2023-05-04T13:33:10.240Z,259.32
2023-05-04T13:38:03.862Z,263.44
2023-05-04T13:43:02.753Z,264.70
2023-05-04T13:48:02.735Z,265.76
2023-05-04T13:53:02.625Z,269.87
2023-05-04T13:58:02.566Z,274.10
2023-05-04T14:03:02.571Z,278.47
2023-05-04T14:08:02.431Z,282.99
2023-05-04T14:13:02.366Z,285.42
2023-05-04T14:18:03.459Z,289.15
2023-05-04T14:23:02.211Z,291.18
2023-05-04T14:28:02.219Z,289.15
2023-05-04T14:33:02.211Z,285.67
2023-05-04T14:38:02.012Z,281.31
2023-05-04T14:43:01.943Z,279.88
2023-05-04T14:48:01.938Z,279.41
2023-05-04T14:53:01.860Z,278.94
2023-05-04T14:58:01.793Z,279.88
2023-05-04T15:03:01.827Z,283.23
2023-05-04T15:08:01.733Z,284.44
2023-05-04T15:13:01.583Z,287.65
2023-05-04T15:18:01.707Z,288.40
2023-05-04T15:23:01.419Z,289.66
2023-05-04T15:28:01.433Z,290.93
2023-05-04T15:33:01.351Z,293.24
2023-05-04T15:38:01.254Z,296.38
2023-05-04T15:43:01.434Z,299.05
2023-05-04T15:48:01.303Z,299.87
2023-05-04T15:53:01.017Z,301.77
2023-05-04T15:58:01.094Z,301.77
2023-05-04T16:03:00.978Z,301.23
2023-05-04T16:08:00.990Z,304.27
2023-05-04T16:13:01.104Z,302.88
2023-05-04T16:18:00.782Z,304.83
2023-05-04T16:23:00.688Z,308.80
2023-05-04T16:28:00.588Z,310.82
2023-05-04T16:33:00.613Z,313.76
2023-05-04T16:38:00.461Z,312.28
2023-05-04T16:43:00.414Z,313.76
2023-05-04T16:48:00.374Z,319.81
2023-05-04T16:53:00.265Z,317.67
2023-05-04T16:58:00.176Z,317.67
2023-05-04T17:03:00.258Z,316.15
2023-05-04T17:08:00.102Z,313.17
2023-05-04T17:13:02.269Z,314.36
2023-05-04T17:17:59.991Z,318.89
2023-05-04T17:22:59.911Z,321.67
2023-05-04T17:27:59.803Z,318.89
2023-05-04T17:32:59.776Z,320.12
2023-05-04T17:37:59.659Z,321.98
2023-05-04T17:42:59.620Z,330.32
2023-05-04T17:47:59.579Z,331.97
2023-05-04T17:52:59.492Z,331.64
2023-05-04T17:57:59.401Z,331.64
2023-05-04T18:02:59.417Z,330.97
2023-05-04T18:07:59.274Z,330.97
2023-05-04T18:12:59.246Z,337.37
2023-05-04T18:17:59.164Z,337.71
2023-05-04T18:22:59.083Z,337.71
2023-05-04T18:27:59.021Z,340.83
2023-05-04T18:32:59.045Z,342.24
2023-05-04T18:37:58.882Z,339.44
2023-05-04T18:42:58.783Z,340.14
2023-05-04T18:47:58.773Z,342.59
2023-05-04T18:52:58.731Z,342.24
2023-05-04T18:57:58.643Z,338.40
2023-05-04T19:02:58.629Z,336.68
2023-05-04T19:07:58.528Z,332.97
2023-05-04T19:12:58.504Z,330.97
2023-05-04T19:17:58.404Z,329.66
2023-05-04T19:22:58.344Z,328.68
2023-05-04T19:27:58.689Z,328.68
2023-05-04T19:32:58.239Z,328.35
2023-05-04T19:37:58.137Z,328.03
2023-05-04T19:42:58.069Z,327.06
2023-05-04T19:47:58.079Z,327.71
2023-05-04T19:52:57.924Z,326.74
2023-05-04T19:57:57.842Z,327.71
2023-05-04T20:02:57.787Z,329.66
2023-05-04T20:07:57.697Z,333.64
2023-05-04T20:12:57.665Z,336.68
2023-05-04T20:17:57.594Z,337.37
2023-05-04T20:22:57.501Z,336.34
2023-05-04T20:27:57.411Z,332.97
2023-05-04T20:32:57.391Z,333.30
2023-05-04T20:37:57.304Z,331.64
2023-05-04T20:42:57.250Z,331.64
2023-05-04T20:47:57.193Z,331.30
2023-05-04T20:52:57.135Z,330.97
2023-05-04T20:57:57.005Z,331.64
2023-05-04T21:02:57.085Z,335.32
2023-05-04T21:07:56.938Z,334.31
2023-05-04T21:12:56.902Z,336.34
2023-05-04T21:17:56.763Z,339.44
2023-05-04T21:22:56.697Z,337.03
2023-05-04T21:27:56.627Z,337.37
2023-05-04T21:32:56.624Z,341.54
2023-05-04T21:37:56.476Z,340.83
2023-05-04T21:42:56.430Z,340.48
2023-05-04T21:47:56.438Z,341.89
2023-05-04T21:52:56.303Z,344.01
2023-05-04T21:57:56.212Z,342.24
2023-05-04T22:02:56.185Z,344.73
2023-05-04T22:07:56.077Z,343.66
2023-05-04T22:12:56.039Z,344.01
2023-05-04T22:17:55.976Z,342.95
2023-05-04T22:22:55.894Z,344.37
2023-05-04T22:27:55.818Z,344.37
2023-05-04T22:32:55.752Z,342.59
2023-05-04T22:37:55.687Z,341.54
2023-05-04T22:42:55.595Z,343.66
2023-05-04T22:47:55.595Z,340.48
2023-05-04T22:52:55.561Z,340.83
2023-05-04T22:57:55.421Z,338.75
2023-05-04T23:02:55.486Z,338.40
2023-05-04T23:07:55.288Z,339.79
2023-05-04T23:12:55.248Z,338.40
2023-05-04T23:17:55.152Z,338.75
2023-05-04T23:22:55.090Z,337.37
2023-05-04T23:27:55.012Z,337.37
2023-05-04T23:32:55.064Z,339.09
2023-05-04T23:37:54.906Z,338.75
2023-05-04T23:42:54.822Z,339.09
2023-05-04T23:47:54.830Z,338.40
2023-05-04T23:52:54.679Z,336.00
2023-05-04T23:57:54.630Z,333.64
